sensor_id;sensor_type;location;lat;lon;timestamp;pressure;altitude;pressure_sealevel;temperature
13304;BMP280;6720;51.958;4.540;2023-08-06T00:02:16;100266.88;;;19.69
13304;BMP280;6720;51.958;4.540;2023-08-06T00:04:41;100264.44;;;19.66
13304;BMP280;6720;51.958;4.540;2023-08-06T00:07:07;100267.91;;;19.67
13304;BMP280;6720;51.958;4.540;2023-08-06T00:09:32;100263.47;;;19.67
13304;BMP280;6720;51.958;4.540;2023-08-06T00:11:58;100261.78;;;19.66
13304;BMP280;6720;51.958;4.540;2023-08-06T00:14:23;100263.66;;;19.64
13304;BMP280;6720;51.958;4.540;2023-08-06T00:16:48;100264.63;;;19.63
13304;BMP280;6720;51.958;4.540;2023-08-06T00:19:14;100268.97;;;19.64
13304;BMP280;6720;51.958;4.540;2023-08-06T00:21:39;100266.31;;;19.64
13304;BMP280;6720;51.958;4.540;2023-08-06T00:24:05;100261.66;;;19.68
13304;BMP280;6720;51.958;4.540;2023-08-06T00:26:30;100264.97;;;19.71
13304;BMP280;6720;51.958;4.540;2023-08-06T00:28:55;100258.25;;;19.66
13304;BMP280;6720;51.958;4.540;2023-08-06T00:31:21;100259.31;;;19.63
13304;BMP280;6720;51.958;4.540;2023-08-06T00:33:46;100266.13;;;19.67
13304;BMP280;6720;51.958;4.540;2023-08-06T00:36:12;100263.47;;;19.67
13304;BMP280;6720;51.958;4.540;2023-08-06T00:38:37;100267.09;;;19.66
13304;BMP280;6720;51.958;4.540;2023-08-06T00:41:03;100260.53;;;19.72
13304;BMP280;6720;51.958;4.540;2023-08-06T00:43:28;100257.19;;;19.68
13304;BMP280;6720;51.958;4.540;2023-08-06T00:45:54;100263.28;;;19.70
13304;BMP280;6720;51.958;4.540;2023-08-06T00:48:19;100264.13;;;19.71
13304;BMP280;6720;51.958;4.540;2023-08-06T00:50:45;100269.88;;;19.77
13304;BMP280;6720;51.958;4.540;2023-08-06T00:53:11;100270.66;;;19.79
13304;BMP280;6720;51.958;4.540;2023-08-06T00:55:37;100263.56;;;19.80
13304;BMP280;6720;51.958;4.540;2023-08-06T00:58:02;100269.50;;;19.83
13304;BMP280;6720;51.958;4.540;2023-08-06T01:00:28;100268.88;;;19.80
13304;BMP280;6720;51.958;4.540;2023-08-06T01:02:53;100266.31;;;19.78
13304;BMP280;6720;51.958;4.540;2023-08-06T01:05:20;100261.72;;;19.80
13304;BMP280;6720;51.958;4.540;2023-08-06T01:13:50;100265.84;;;19.72
13304;BMP280;6720;51.958;4.540;2023-08-06T01:16:20;100267.34;;;19.76
13304;BMP280;6720;51.958;4.540;2023-08-06T01:18:50;100267.34;;;19.76
13304;BMP280;6720;51.958;4.540;2023-08-06T01:21:16;100269.06;;;19.77
13304;BMP280;6720;51.958;4.540;2023-08-06T01:23:42;100267.22;;;19.77
13304;BMP280;6720;51.958;4.540;2023-08-06T01:28:44;100270.94;;;19.75
13304;BMP280;6720;51.958;4.540;2023-08-06T01:31:22;100270.00;;;19.76
13304;BMP280;6720;51.958;4.540;2023-08-06T01:33:49;100269.63;;;19.68
13304;BMP280;6720;51.958;4.540;2023-08-06T01:36:16;100277.31;;;19.72
13304;BMP280;6720;51.958;4.540;2023-08-06T01:38:42;100276.16;;;19.76
13304;BMP280;6720;51.958;4.540;2023-08-06T01:41:08;100272.94;;;19.71
13304;BMP280;6720;51.958;4.540;2023-08-06T01:43:33;100265.75;;;19.59
13304;BMP280;6720;51.958;4.540;2023-08-06T01:45:58;100272.78;;;19.60
13304;BMP280;6720;51.958;4.540;2023-08-06T01:48:24;100280.38;;;19.66
13304;BMP280;6720;51.958;4.540;2023-08-06T01:50:50;100278.34;;;19.70
13304;BMP280;6720;51.958;4.540;2023-08-06T01:53:15;100281.00;;;19.70
13304;BMP280;6720;51.958;4.540;2023-08-06T01:55:41;100280.25;;;19.68
13304;BMP280;6720;51.958;4.540;2023-08-06T01:58:06;100284.31;;;19.73
13304;BMP280;6720;51.958;4.540;2023-08-06T02:00:31;100281.19;;;19.81
13304;BMP280;6720;51.958;4.540;2023-08-06T02:02:57;100285.00;;;19.77
13304;BMP280;6720;51.958;4.540;2023-08-06T02:05:22;100294.75;;;19.76
13304;BMP280;6720;51.958;4.540;2023-08-06T02:07:48;100290.88;;;19.68
13304;BMP280;6720;51.958;4.540;2023-08-06T02:10:13;100295.25;;;19.69
13304;BMP280;6720;51.958;4.540;2023-08-06T02:12:38;100298.47;;;19.74
13304;BMP280;6720;51.958;4.540;2023-08-06T02:15:04;100301.75;;;19.77
13304;BMP280;6720;51.958;4.540;2023-08-06T02:17:30;100289.44;;;19.76
13304;BMP280;6720;51.958;4.540;2023-08-06T02:19:55;100295.63;;;19.77
13304;BMP280;6720;51.958;4.540;2023-08-06T02:22:21;100296.66;;;19.74
13304;BMP280;6720;51.958;4.540;2023-08-06T02:24:49;100296.25;;;19.80
13304;BMP280;6720;51.958;4.540;2023-08-06T02:27:14;100296.44;;;19.77
13304;BMP280;6720;51.958;4.540;2023-08-06T02:29:40;100290.41;;;19.75
13304;BMP280;6720;51.958;4.540;2023-08-06T02:32:06;100292.28;;;19.73
13304;BMP280;6720;51.958;4.540;2023-08-06T02:34:32;100299.41;;;19.73
13304;BMP280;6720;51.958;4.540;2023-08-06T02:36:57;100302.72;;;19.76
13304;BMP280;6720;51.958;4.540;2023-08-06T02:39:23;100300.44;;;19.84
13304;BMP280;6720;51.958;4.540;2023-08-06T02:41:48;100302.91;;;19.87
13304;BMP280;6720;51.958;4.540;2023-08-06T02:44:13;100306.31;;;19.89
13304;BMP280;6720;51.958;4.540;2023-08-06T02:46:39;100303.66;;;19.89
13304;BMP280;6720;51.958;4.540;2023-08-06T02:49:04;100302.91;;;19.87
13304;BMP280;6720;51.958;4.540;2023-08-06T02:51:29;100307.56;;;19.84
13304;BMP280;6720;51.958;4.540;2023-08-06T02:53:55;100299.78;;;19.81
13304;BMP280;6720;51.958;4.540;2023-08-06T02:56:20;100302.25;;;19.84
13304;BMP280;6720;51.958;4.540;2023-08-06T02:58:46;100298.19;;;19.78
13304;BMP280;6720;51.958;4.540;2023-08-06T03:01:12;100313.53;;;19.87
13304;BMP280;6720;51.958;4.540;2023-08-06T03:03:37;100307.66;;;19.96
13304;BMP280;6720;51.958;4.540;2023-08-06T03:06:02;100307.66;;;19.96
13304;BMP280;6720;51.958;4.540;2023-08-06T03:08:28;100310.13;;;19.85
13304;BMP280;6720;51.958;4.540;2023-08-06T03:10:53;100303.69;;;19.75
13304;BMP280;6720;51.958;4.540;2023-08-06T03:13:19;100304.63;;;19.60
13304;BMP280;6720;51.958;4.540;2023-08-06T03:15:52;100305.09;;;19.67
13304;BMP280;6720;51.958;4.540;2023-08-06T03:18:19;100305.03;;;19.40
13304;BMP280;6720;51.958;4.540;2023-08-06T03:20:44;100309.84;;;19.34
13304;BMP280;6720;51.958;4.540;2023-08-06T03:23:10;100304.53;;;19.34
13304;BMP280;6720;51.958;4.540;2023-08-06T03:25:35;100320.56;;;19.32
13304;BMP280;6720;51.958;4.540;2023-08-06T03:28:02;100328.97;;;19.25
13304;BMP280;6720;51.958;4.540;2023-08-06T03:30:27;100322.63;;;19.27
13304;BMP280;6720;51.958;4.540;2023-08-06T03:32:53;100314.75;;;19.26
13304;BMP280;6720;51.958;4.540;2023-08-06T03:35:18;100315.94;;;19.20
13304;BMP280;6720;51.958;4.540;2023-08-06T03:37:44;100319.34;;;19.08
13304;BMP280;6720;51.958;4.540;2023-08-06T03:40:10;100319.59;;;19.04
13304;BMP280;6720;51.958;4.540;2023-08-06T03:42:35;100311.16;;;18.97
13304;BMP280;6720;51.958;4.540;2023-08-06T03:45:01;100315.03;;;18.78
13304;BMP280;6720;51.958;4.540;2023-08-06T03:47:26;100316.78;;;18.93
13304;BMP280;6720;51.958;4.540;2023-08-06T03:49:51;100330.13;;;18.91
13304;BMP280;6720;51.958;4.540;2023-08-06T03:52:17;100332.88;;;18.90
13304;BMP280;6720;51.958;4.540;2023-08-06T03:54:42;100330.13;;;18.91
13304;BMP280;6720;51.958;4.540;2023-08-06T03:57:08;100336.13;;;18.79
13304;BMP280;6720;51.958;4.540;2023-08-06T03:59:34;100338.66;;;18.96
13304;BMP280;6720;51.958;4.540;2023-08-06T04:01:59;100334.59;;;19.05
13304;BMP280;6720;51.958;4.540;2023-08-06T04:04:24;100345.19;;;18.75
13304;BMP280;6720;51.958;4.540;2023-08-06T04:06:50;100347.44;;;18.67
13304;BMP280;6720;51.958;4.540;2023-08-06T04:09:15;100352.34;;;18.59
13304;BMP280;6720;51.958;4.540;2023-08-06T04:11:41;100355.53;;;18.50
13304;BMP280;6720;51.958;4.540;2023-08-06T04:14:06;100349.03;;;18.56
13304;BMP280;6720;51.958;4.540;2023-08-06T04:16:32;100359.44;;;18.27
13304;BMP280;6720;51.958;4.540;2023-08-06T04:18:57;100364.84;;;18.42
13304;BMP280;6720;51.958;4.540;2023-08-06T04:21:23;100365.84;;;18.55
13304;BMP280;6720;51.958;4.540;2023-08-06T04:23:49;100369.19;;;18.43
13304;BMP280;6720;51.958;4.540;2023-08-06T04:26:14;100381.69;;;18.41
13304;BMP280;6720;51.958;4.540;2023-08-06T04:28:39;100377.22;;;18.41
13304;BMP280;6720;51.958;4.540;2023-08-06T04:31:05;100380.84;;;18.40
13304;BMP280;6720;51.958;4.540;2023-08-06T04:33:30;100381.16;;;18.50
13304;BMP280;6720;51.958;4.540;2023-08-06T04:35:56;100391.94;;;18.47
13304;BMP280;6720;51.958;4.540;2023-08-06T04:38:23;100388.94;;;18.37
13304;BMP280;6720;51.958;4.540;2023-08-06T04:40:49;100395.88;;;18.40
13304;BMP280;6720;51.958;4.540;2023-08-06T04:43:14;100396.41;;;18.46
13304;BMP280;6720;51.958;4.540;2023-08-06T04:45:46;100390.69;;;18.38
13304;BMP280;6720;51.958;4.540;2023-08-06T04:48:12;100399.56;;;18.37
13304;BMP280;6720;51.958;4.540;2023-08-06T04:50:37;100398.94;;;18.32
13304;BMP280;6720;51.958;4.540;2023-08-06T04:53:03;100404.78;;;18.39
13304;BMP280;6720;51.958;4.540;2023-08-06T04:55:28;100407.34;;;18.40
13304;BMP280;6720;51.958;4.540;2023-08-06T04:57:53;100405.94;;;18.33
13304;BMP280;6720;51.958;4.540;2023-08-06T05:00:19;100404.22;;;18.32
13304;BMP280;6720;51.958;4.540;2023-08-06T05:02:44;100411.59;;;18.27
13304;BMP280;6720;51.958;4.540;2023-08-06T05:05:10;100415.91;;;18.12
13304;BMP280;6720;51.958;4.540;2023-08-06T05:07:35;100426.28;;;18.17
13304;BMP280;6720;51.958;4.540;2023-08-06T05:10:00;100422.34;;;18.24
13304;BMP280;6720;51.958;4.540;2023-08-06T05:12:26;100429.34;;;18.25
13304;BMP280;6720;51.958;4.540;2023-08-06T05:14:51;100429.72;;;18.19
13304;BMP280;6720;51.958;4.540;2023-08-06T05:17:16;100432.44;;;18.33
13304;BMP280;6720;51.958;4.540;2023-08-06T05:19:42;100431.59;;;18.33
13304;BMP280;6720;51.958;4.540;2023-08-06T05:22:07;100441.34;;;18.32
13304;BMP280;6720;51.958;4.540;2023-08-06T05:24:33;100441.06;;;18.21
13304;BMP280;6720;51.958;4.540;2023-08-06T05:26:58;100441.22;;;18.18
13304;BMP280;6720;51.958;4.540;2023-08-06T05:29:23;100457.56;;;18.26
13304;BMP280;6720;51.958;4.540;2023-08-06T05:31:49;100450.97;;;18.33
13304;BMP280;6720;51.958;4.540;2023-08-06T05:34:14;100453.84;;;18.46
13304;BMP280;6720;51.958;4.540;2023-08-06T05:36:40;100470.00;;;18.41
13304;BMP280;6720;51.958;4.540;2023-08-06T05:39:05;100466.69;;;18.38
13304;BMP280;6720;51.958;4.540;2023-08-06T05:41:30;100476.19;;;18.57
13304;BMP280;6720;51.958;4.540;2023-08-06T05:43:56;100470.63;;;18.46
13304;BMP280;6720;51.958;4.540;2023-08-06T05:46:21;100469.59;;;18.64
13304;BMP280;6720;51.958;4.540;2023-08-06T05:48:47;100485.50;;;18.64
13304;BMP280;6720;51.958;4.540;2023-08-06T05:51:12;100486.00;;;18.55
13304;BMP280;6720;51.958;4.540;2023-08-06T05:53:38;100493.38;;;18.50
13304;BMP280;6720;51.958;4.540;2023-08-06T05:56:04;100497.38;;;18.42
13304;BMP280;6720;51.958;4.540;2023-08-06T05:58:29;100495.50;;;18.44
13304;BMP280;6720;51.958;4.540;2023-08-06T06:00:56;100492.59;;;18.48
13304;BMP280;6720;51.958;4.540;2023-08-06T06:03:21;100502.44;;;18.46
13304;BMP280;6720;51.958;4.540;2023-08-06T06:05:47;100505.00;;;18.48
13304;BMP280;6720;51.958;4.540;2023-08-06T06:08:12;100509.97;;;18.54
13304;BMP280;6720;51.958;4.540;2023-08-06T06:10:37;100502.78;;;18.56
13304;BMP280;6720;51.958;4.540;2023-08-06T06:13:03;100500.56;;;18.79
13304;BMP280;6720;51.958;4.540;2023-08-06T06:15:28;100503.13;;;18.81
13304;BMP280;6720;51.958;4.540;2023-08-06T06:17:54;100511.63;;;18.87
13304;BMP280;6720;51.958;4.540;2023-08-06T06:20:19;100509.97;;;18.85
13304;BMP280;6720;51.958;4.540;2023-08-06T06:22:44;100507.56;;;18.96
13304;BMP280;6720;51.958;4.540;2023-08-06T06:25:10;100509.81;;;19.03
13304;BMP280;6720;51.958;4.540;2023-08-06T06:27:35;100512.88;;;19.11
13304;BMP280;6720;51.958;4.540;2023-08-06T06:30:01;100508.22;;;19.15
13304;BMP280;6720;51.958;4.540;2023-08-06T06:32:27;100517.16;;;19.14
13304;BMP280;6720;51.958;4.540;2023-08-06T06:34:52;100512.16;;;19.23
13304;BMP280;6720;51.958;4.540;2023-08-06T06:37:18;100516.78;;;19.35
13304;BMP280;6720;51.958;4.540;2023-08-06T06:39:43;100521.94;;;19.23
13304;BMP280;6720;51.958;4.540;2023-08-06T06:42:09;100520.97;;;19.39
13304;BMP280;6720;51.958;4.540;2023-08-06T06:44:35;100527.63;;;19.32
13304;BMP280;6720;51.958;4.540;2023-08-06T06:47:00;100530.13;;;19.49
13304;BMP280;6720;51.958;4.540;2023-08-06T06:49:26;100533.44;;;19.39
13304;BMP280;6720;51.958;4.540;2023-08-06T06:51:51;100536.22;;;19.51
13304;BMP280;6720;51.958;4.540;2023-08-06T06:54:17;100539.06;;;19.48
13304;BMP280;6720;51.958;4.540;2023-08-06T06:56:42;100533.75;;;19.48
13304;BMP280;6720;51.958;4.540;2023-08-06T06:59:07;100548.97;;;19.45
13304;BMP280;6720;51.958;4.540;2023-08-06T07:01:33;100541.72;;;19.48
13304;BMP280;6720;51.958;4.540;2023-08-06T07:03:58;100543.25;;;19.52
13304;BMP280;6720;51.958;4.540;2023-08-06T07:06:24;100550.66;;;19.61
13304;BMP280;6720;51.958;4.540;2023-08-06T07:08:49;100552.19;;;19.65
13304;BMP280;6720;51.958;4.540;2023-08-06T07:11:15;100551.06;;;19.69
13304;BMP280;6720;51.958;4.540;2023-08-06T07:13:41;100555.25;;;19.73
13304;BMP280;6720;51.958;4.540;2023-08-06T07:16:08;100555.44;;;19.70
13304;BMP280;6720;51.958;4.540;2023-08-06T07:18:33;100564.88;;;19.60
13304;BMP280;6720;51.958;4.540;2023-08-06T07:21:01;100568.25;;;19.78
13304;BMP280;6720;51.958;4.540;2023-08-06T07:23:27;100557.72;;;19.76
13304;BMP280;6720;51.958;4.540;2023-08-06T07:25:52;100558.53;;;19.92
13304;BMP280;6720;51.958;4.540;2023-08-06T07:28:18;100565.25;;;19.84
13304;BMP280;6720;51.958;4.540;2023-08-06T07:30:44;100563.66;;;19.95
13304;BMP280;6720;51.958;4.540;2023-08-06T07:33:12;100572.22;;;20.00
13304;BMP280;6720;51.958;4.540;2023-08-06T07:35:38;100570.88;;;20.07
13304;BMP280;6720;51.958;4.540;2023-08-06T07:38:04;100568.56;;;19.87
13304;BMP280;6720;51.958;4.540;2023-08-06T07:40:29;100570.28;;;19.88
13304;BMP280;6720;51.958;4.540;2023-08-06T07:42:56;100579.81;;;20.06
13304;BMP280;6720;51.958;4.540;2023-08-06T07:45:22;100568.56;;;19.87
13304;BMP280;6720;51.958;4.540;2023-08-06T07:47:47;100568.06;;;19.96
13304;BMP280;6720;51.958;4.540;2023-08-06T07:50:13;100568.44;;;20.04
13304;BMP280;6720;51.958;4.540;2023-08-06T07:52:39;100575.88;;;20.13
13304;BMP280;6720;51.958;4.540;2023-08-06T07:55:04;100577.00;;;20.09
13304;BMP280;6720;51.958;4.540;2023-08-06T07:57:33;100580.94;;;20.02
13304;BMP280;6720;51.958;4.540;2023-08-06T07:59:59;100577.59;;;20.14
13304;BMP280;6720;51.958;4.540;2023-08-06T08:02:25;100573.63;;;20.21
13304;BMP280;6720;51.958;4.540;2023-08-06T08:04:52;100576.84;;;20.26
13304;BMP280;6720;51.958;4.540;2023-08-06T08:07:21;100580.84;;;20.19
13304;BMP280;6720;51.958;4.540;2023-08-06T08:09:46;100572.97;;;20.18
13304;BMP280;6720;51.958;4.540;2023-08-06T08:12:13;100581.44;;;19.95
13304;BMP280;6720;51.958;4.540;2023-08-06T08:14:39;100577.44;;;20.02
13304;BMP280;6720;51.958;4.540;2023-08-06T08:17:05;100594.81;;;20.37
13304;BMP280;6720;51.958;4.540;2023-08-06T08:19:32;100587.31;;;20.43
13304;BMP280;6720;51.958;4.540;2023-08-06T08:21:57;100587.50;;;20.40
13304;BMP280;6720;51.958;4.540;2023-08-06T08:24:23;100590.94;;;20.42
13304;BMP280;6720;51.958;4.540;2023-08-06T08:26:52;100583.72;;;20.58
13304;BMP280;6720;51.958;4.540;2023-08-06T08:29:19;100587.63;;;20.67
13304;BMP280;6720;51.958;4.540;2023-08-06T08:31:46;100587.91;;;20.76
13304;BMP280;6720;51.958;4.540;2023-08-06T08:34:14;100597.31;;;20.68
13304;BMP280;6720;51.958;4.540;2023-08-06T08:36:40;100593.13;;;20.64
13304;BMP280;6720;51.958;4.540;2023-08-06T08:39:05;100597.56;;;20.77
13304;BMP280;6720;51.958;4.540;2023-08-06T08:41:31;100598.13;;;20.40
13304;BMP280;6720;51.958;4.540;2023-08-06T08:43:58;100605.88;;;20.59
13304;BMP280;6720;51.958;4.540;2023-08-06T08:46:29;100614.03;;;20.70
13304;BMP280;6720;51.958;4.540;2023-08-06T08:48:56;100604.50;;;20.80
13304;BMP280;6720;51.958;4.540;2023-08-06T08:51:23;100606.63;;;20.75
13304;BMP280;6720;51.958;4.540;2023-08-06T08:53:49;100606.72;;;20.87
13304;BMP280;6720;51.958;4.540;2023-08-06T08:56:16;100609.78;;;20.95
13304;BMP280;6720;51.958;4.540;2023-08-06T08:58:43;100615.28;;;21.06
13304;BMP280;6720;51.958;4.540;2023-08-06T09:01:08;100615.00;;;20.97
13304;BMP280;6720;51.958;4.540;2023-08-06T09:03:36;100616.56;;;20.71
13304;BMP280;6720;51.958;4.540;2023-08-06T09:06:01;100618.50;;;21.11
13304;BMP280;6720;51.958;4.540;2023-08-06T09:08:34;100628.97;;;21.00
13304;BMP280;6720;51.958;4.540;2023-08-06T09:11:04;100621.53;;;21.05
13304;BMP280;6720;51.958;4.540;2023-08-06T09:13:30;100629.03;;;20.71
13304;BMP280;6720;51.958;4.540;2023-08-06T09:15:57;100622.22;;;20.95
13304;BMP280;6720;51.958;4.540;2023-08-06T09:18:26;100622.91;;;21.39
13304;BMP280;6720;51.958;4.540;2023-08-06T09:20:53;100625.63;;;21.52
13304;BMP280;6720;51.958;4.540;2023-08-06T09:23:18;100629.53;;;21.87
13304;BMP280;6720;51.958;4.540;2023-08-06T09:25:47;100621.91;;;21.81
13304;BMP280;6720;51.958;4.540;2023-08-06T09:28:12;100622.97;;;21.78
13304;BMP280;6720;51.958;4.540;2023-08-06T09:30:38;100632.13;;;22.01
13304;BMP280;6720;51.958;4.540;2023-08-06T09:33:08;100628.50;;;22.02
13304;BMP280;6720;51.958;4.540;2023-08-06T09:35:39;100641.88;;;21.61
13304;BMP280;6720;51.958;4.540;2023-08-06T09:38:09;100648.81;;;21.64
13304;BMP280;6720;51.958;4.540;2023-08-06T09:40:36;100645.88;;;21.54
13304;BMP280;6720;51.958;4.540;2023-08-06T09:43:02;100649.19;;;21.72
13304;BMP280;6720;51.958;4.540;2023-08-06T09:45:32;100651.94;;;21.29
13304;BMP280;6720;51.958;4.540;2023-08-06T09:47:59;100658.44;;;21.93
13304;BMP280;6720;51.958;4.540;2023-08-06T09:50:30;100657.09;;;22.12
13304;BMP280;6720;51.958;4.540;2023-08-06T09:52:59;100668.00;;;22.61
13304;BMP280;6720;51.958;4.540;2023-08-06T09:55:26;100658.81;;;22.65
13304;BMP280;6720;51.958;4.540;2023-08-06T09:57:52;100670.97;;;22.69
13304;BMP280;6720;51.958;4.540;2023-08-06T10:00:18;100668.78;;;22.36
13304;BMP280;6720;51.958;4.540;2023-08-06T10:02:43;100679.72;;;22.71
13304;BMP280;6720;51.958;4.540;2023-08-06T10:05:10;100683.47;;;22.68
13304;BMP280;6720;51.958;4.540;2023-08-06T10:07:36;100690.19;;;22.74
13304;BMP280;6720;51.958;4.540;2023-08-06T10:10:05;100683.25;;;22.84
13304;BMP280;6720;51.958;4.540;2023-08-06T10:12:34;100689.34;;;22.86
13304;BMP280;6720;51.958;4.540;2023-08-06T10:15:04;100690.41;;;22.96
13304;BMP280;6720;51.958;4.540;2023-08-06T10:17:31;100689.34;;;23.36
13304;BMP280;6720;51.958;4.540;2023-08-06T10:19:56;100688.28;;;23.62
13304;BMP280;6720;51.958;4.540;2023-08-06T10:22:23;100689.09;;;23.39
13304;BMP280;6720;51.958;4.540;2023-08-06T10:24:53;100694.81;;;23.58
13304;BMP280;6720;51.958;4.540;2023-08-06T10:27:28;100689.53;;;23.08
13304;BMP280;6720;51.958;4.540;2023-08-06T10:29:55;100693.38;;;22.79
13304;BMP280;6720;51.958;4.540;2023-08-06T10:32:20;100688.50;;;22.85
13304;BMP280;6720;51.958;4.540;2023-08-06T10:34:54;100697.25;;;23.00
13304;BMP280;6720;51.958;4.540;2023-08-06T10:37:24;100684.66;;;22.89
13304;BMP280;6720;51.958;4.540;2023-08-06T10:39:59;100690.19;;;23.11
13304;BMP280;6720;51.958;4.540;2023-08-06T10:42:29;100684.38;;;23.55
13304;BMP280;6720;51.958;4.540;2023-08-06T10:45:15;100674.19;;;23.83
13304;BMP280;6720;51.958;4.540;2023-08-06T10:47:42;100687.09;;;23.66
13304;BMP280;6720;51.958;4.540;2023-08-06T10:50:14;100693.31;;;23.54
13304;BMP280;6720;51.958;4.540;2023-08-06T10:52:42;100692.31;;;23.44
13304;BMP280;6720;51.958;4.540;2023-08-06T10:55:08;100700.63;;;23.14
13304;BMP280;6720;51.958;4.540;2023-08-06T10:57:34;100706.59;;;23.43
13304;BMP280;6720;51.958;4.540;2023-08-06T10:59:59;100696.69;;;23.81
13304;BMP280;6720;51.958;4.540;2023-08-06T11:02:25;100697.91;;;23.88
13304;BMP280;6720;51.958;4.540;2023-08-06T11:04:50;100701.63;;;23.62
13304;BMP280;6720;51.958;4.540;2023-08-06T11:07:16;100712.56;;;23.59
13304;BMP280;6720;51.958;4.540;2023-08-06T11:09:42;100699.19;;;23.95
13304;BMP280;6720;51.958;4.540;2023-08-06T11:12:26;100710.75;;;23.95
13304;BMP280;6720;51.958;4.540;2023-08-06T11:15:00;100701.13;;;24.16
13304;BMP280;6720;51.958;4.540;2023-08-06T11:17:37;100697.25;;;25.01
13304;BMP280;6720;51.958;4.540;2023-08-06T11:20:05;100711.00;;;24.96
13304;BMP280;6720;51.958;4.540;2023-08-06T11:22:31;100702.16;;;25.40
13304;BMP280;6720;51.958;4.540;2023-08-06T11:24:56;100701.41;;;25.49
13304;BMP280;6720;51.958;4.540;2023-08-06T11:27:22;100701.75;;;25.00
13304;BMP280;6720;51.958;4.540;2023-08-06T11:29:47;100705.44;;;25.43
13304;BMP280;6720;51.958;4.540;2023-08-06T11:32:13;100705.22;;;25.89
13304;BMP280;6720;51.958;4.540;2023-08-06T11:34:39;100711.28;;;25.37
13304;BMP280;6720;51.958;4.540;2023-08-06T11:37:06;100701.16;;;25.08
13304;BMP280;6720;51.958;4.540;2023-08-06T11:39:35;100698.84;;;25.14
13304;BMP280;6720;51.958;4.540;2023-08-06T11:42:05;100702.09;;;24.74
13304;BMP280;6720;51.958;4.540;2023-08-06T11:44:33;100714.91;;;24.23
13304;BMP280;6720;51.958;4.540;2023-08-06T11:47:00;100712.75;;;23.68
13304;BMP280;6720;51.958;4.540;2023-08-06T11:49:49;100721.41;;;23.36
13304;BMP280;6720;51.958;4.540;2023-08-06T11:52:22;100724.66;;;23.52
13304;BMP280;6720;51.958;4.540;2023-08-06T11:55:08;100727.47;;;23.38
13304;BMP280;6720;51.958;4.540;2023-08-06T11:57:44;100726.94;;;23.33
13304;BMP280;6720;51.958;4.540;2023-08-06T12:00:14;100719.38;;;23.75
13304;BMP280;6720;51.958;4.540;2023-08-06T12:02:40;100720.44;;;24.09
13304;BMP280;6720;51.958;4.540;2023-08-06T12:05:10;100720.09;;;24.48
13304;BMP280;6720;51.958;4.540;2023-08-06T12:07:40;100718.34;;;24.36
13304;BMP280;6720;51.958;4.540;2023-08-06T12:10:06;100716.94;;;24.43
13304;BMP280;6720;51.958;4.540;2023-08-06T12:12:33;100720.97;;;24.83
13304;BMP280;6720;51.958;4.540;2023-08-06T12:14:59;100725.19;;;24.63
13304;BMP280;6720;51.958;4.540;2023-08-06T12:17:24;100725.13;;;24.87
13304;BMP280;6720;51.958;4.540;2023-08-06T12:19:50;100725.78;;;24.67
13304;BMP280;6720;51.958;4.540;2023-08-06T12:22:17;100730.69;;;24.73
13304;BMP280;6720;51.958;4.540;2023-08-06T12:24:45;100736.59;;;24.31
13304;BMP280;6720;51.958;4.540;2023-08-06T12:27:11;100739.03;;;23.74
13304;BMP280;6720;51.958;4.540;2023-08-06T12:29:44;100744.16;;;23.77
13304;BMP280;6720;51.958;4.540;2023-08-06T12:32:10;100749.72;;;23.38
13304;BMP280;6720;51.958;4.540;2023-08-06T12:34:49;100750.44;;;23.28
13304;BMP280;6720;51.958;4.540;2023-08-06T12:37:19;100752.31;;;23.63
13304;BMP280;6720;51.958;4.540;2023-08-06T12:39:45;100752.03;;;23.55
13304;BMP280;6720;51.958;4.540;2023-08-06T12:42:10;100752.88;;;23.56
13304;BMP280;6720;51.958;4.540;2023-08-06T12:44:36;100751.09;;;23.44
13304;BMP280;6720;51.958;4.540;2023-08-06T12:47:01;100747.75;;;24.25
13304;BMP280;6720;51.958;4.540;2023-08-06T12:49:27;100758.59;;;24.11
13304;BMP280;6720;51.958;4.540;2023-08-06T12:51:54;100774.13;;;23.70
13304;BMP280;6720;51.958;4.540;2023-08-06T12:54:20;100771.09;;;23.87
13304;BMP280;6720;51.958;4.540;2023-08-06T12:56:46;100773.88;;;23.98
13304;BMP280;6720;51.958;4.540;2023-08-06T12:59:14;100777.00;;;24.15
13304;BMP280;6720;51.958;4.540;2023-08-06T13:01:40;100776.88;;;23.93
13304;BMP280;6720;51.958;4.540;2023-08-06T13:04:06;100774.81;;;24.09
13304;BMP280;6720;51.958;4.540;2023-08-06T13:06:31;100781.53;;;24.15
13304;BMP280;6720;51.958;4.540;2023-08-06T13:09:07;100791.78;;;24.68
13304;BMP280;6720;51.958;4.540;2023-08-06T13:11:34;100784.53;;;25.49
13304;BMP280;6720;51.958;4.540;2023-08-06T13:14:09;100781.66;;;26.16
13304;BMP280;6720;51.958;4.540;2023-08-06T13:16:36;100793.09;;;26.18
13304;BMP280;6720;51.958;4.540;2023-08-06T13:19:03;100801.22;;;26.07
13304;BMP280;6720;51.958;4.540;2023-08-06T13:21:34;100794.88;;;25.64
13304;BMP280;6720;51.958;4.540;2023-08-06T13:24:02;100794.13;;;25.29
13304;BMP280;6720;51.958;4.540;2023-08-06T13:26:29;100805.34;;;25.67
13304;BMP280;6720;51.958;4.540;2023-08-06T13:28:55;100807.91;;;25.47
13304;BMP280;6720;51.958;4.540;2023-08-06T13:31:20;100805.28;;;25.12
13304;BMP280;6720;51.958;4.540;2023-08-06T13:33:46;100802.94;;;24.97
13304;BMP280;6720;51.958;4.540;2023-08-06T13:36:13;100817.88;;;24.88
13304;BMP280;6720;51.958;4.540;2023-08-06T13:38:38;100838.22;;;24.20
13304;BMP280;6720;51.958;4.540;2023-08-06T13:41:04;100837.75;;;23.65
13304;BMP280;6720;51.958;4.540;2023-08-06T13:43:30;100838.63;;;23.53
13304;BMP280;6720;51.958;4.540;2023-08-06T13:45:56;100844.72;;;23.30
13304;BMP280;6720;51.958;4.540;2023-08-06T13:48:21;100838.19;;;23.21
13304;BMP280;6720;51.958;4.540;2023-08-06T13:50:47;100845.50;;;22.93
13304;BMP280;6720;51.958;4.540;2023-08-06T13:53:12;100851.28;;;22.20
13304;BMP280;6720;51.958;4.540;2023-08-06T13:55:38;100854.81;;;22.61
13304;BMP280;6720;51.958;4.540;2023-08-06T13:58:03;100860.53;;;22.55
13304;BMP280;6720;51.958;4.540;2023-08-06T14:00:29;100862.06;;;22.45
13304;BMP280;6720;51.958;4.540;2023-08-06T14:02:55;100879.31;;;21.99
13304;BMP280;6720;51.958;4.540;2023-08-06T14:05:21;100885.31;;;22.02
13304;BMP280;6720;51.958;4.540;2023-08-06T14:07:48;100887.94;;;22.16
13304;BMP280;6720;51.958;4.540;2023-08-06T14:10:13;100897.28;;;21.09
13304;BMP280;6720;51.958;4.540;2023-08-06T14:12:40;100930.53;;;21.02
13304;BMP280;6720;51.958;4.540;2023-08-06T14:15:05;100919.19;;;20.99